sensor_id;sensor_type;location;lat;lon;timestamp;pressure;altitude;pressure_sealevel;temperature;humidity
51496;BME280;37572;52.094;4.870;2024-03-23T00:55:28;101114.66;;;12.31;59.52
51496;BME280;37572;52.094;4.870;2024-03-23T00:57:53;101113.97;;;12.29;59.54
51496;BME280;37572;52.094;4.870;2024-03-23T01:00:19;101108.09;;;12.26;59.52
51496;BME280;37572;52.094;4.870;2024-03-23T01:02:44;101104.09;;;12.21;59.62
51496;BME280;37572;52.094;4.870;2024-03-23T01:05:09;101102.75;;;12.17;59.34
51496;BME280;37572;52.094;4.870;2024-03-23T01:07:35;101098.72;;;12.13;59.36
51496;BME280;37572;52.094;4.870;2024-03-23T01:10:00;101087.69;;;12.08;59.40
51496;BME280;37572;52.094;4.870;2024-03-23T01:12:25;101081.81;;;12.05;59.42
51496;BME280;37572;52.094;4.870;2024-03-23T01:14:51;101080.44;;;12.00;59.27
51496;BME280;37572;52.094;4.870;2024-03-23T01:17:16;101080.94;;;11.96;59.23
51496;BME280;37572;52.094;4.870;2024-03-23T01:19:41;101080.41;;;11.92;59.40
51496;BME280;37572;52.094;4.870;2024-03-23T01:22:07;101079.72;;;11.90;59.32
51496;BME280;37572;52.094;4.870;2024-03-23T01:24:32;101091.56;;;11.88;59.44
51496;BME280;37572;52.094;4.870;2024-03-23T01:26:58;101077.50;;;11.85;59.30
51496;BME280;37572;52.094;4.870;2024-03-23T01:29:23;101076.16;;;11.81;59.36
51496;BME280;37572;52.094;4.870;2024-03-23T01:31:48;101077.44;;;11.77;59.33
51496;BME280;37572;52.094;4.870;2024-03-23T01:34:14;101074.44;;;11.72;59.25
51496;BME280;37572;52.094;4.870;2024-03-23T01:36:39;101069.59;;;11.68;58.97
51496;BME280;37572;52.094;4.870;2024-03-23T01:39:05;101065.84;;;11.60;59.10
51496;BME280;37572;52.094;4.870;2024-03-23T01:41:30;101073.78;;;11.52;59.02
51496;BME280;37572;52.094;4.870;2024-03-23T01:43:55;101063.91;;;11.44;59.13
51496;BME280;37572;52.094;4.870;2024-03-23T01:46:21;101066.53;;;11.36;59.07
51496;BME280;37572;52.094;4.870;2024-03-23T01:48:47;101076.81;;;11.31;59.24
51496;BME280;37572;52.094;4.870;2024-03-23T01:51:13;101064.94;;;11.25;59.32
51496;BME280;37572;52.094;4.870;2024-03-23T01:53:38;101063.88;;;11.18;59.43
51496;BME280;37572;52.094;4.870;2024-03-23T01:56:03;101060.00;;;11.13;59.29
51496;BME280;37572;52.094;4.870;2024-03-23T01:58:29;101059.63;;;11.07;59.13
51496;BME280;37572;52.094;4.870;2024-03-23T02:00:54;101065.41;;;11.03;59.43
51496;BME280;37572;52.094;4.870;2024-03-23T02:03:23;101063.06;;;11.00;59.31
51496;BME280;37572;52.094;4.870;2024-03-23T02:05:53;101054.84;;;10.93;59.25
51496;BME280;37572;52.094;4.870;2024-03-23T02:08:20;101052.78;;;10.87;59.35
51496;BME280;37572;52.094;4.870;2024-03-23T02:10:46;101055.72;;;10.84;59.31
51496;BME280;37572;52.094;4.870;2024-03-23T02:13:11;101058.69;;;10.81;59.35
51496;BME280;37572;52.094;4.870;2024-03-23T02:15:38;101045.72;;;10.78;59.30
51496;BME280;37572;52.094;4.870;2024-03-23T02:18:04;101048.66;;;10.74;59.29
51496;BME280;37572;52.094;4.870;2024-03-23T02:20:29;101046.31;;;10.71;59.32
51496;BME280;37572;52.094;4.870;2024-03-23T02:22:54;101045.78;;;10.68;59.29
51496;BME280;37572;52.094;4.870;2024-03-23T02:25:20;101039.91;;;10.64;59.26
51496;BME280;37572;52.094;4.870;2024-03-23T02:27:45;101041.03;;;10.62;59.24
51496;BME280;37572;52.094;4.870;2024-03-23T02:30:10;101032.53;;;10.58;59.13
51496;BME280;37572;52.094;4.870;2024-03-23T02:32:35;101027.78;;;10.52;58.94
51496;BME280;37572;52.094;4.870;2024-03-23T02:35:01;101033.41;;;10.49;59.09
51496;BME280;37572;52.094;4.870;2024-03-23T02:37:26;101022.38;;;10.44;58.87
51496;BME280;37572;52.094;4.870;2024-03-23T02:39:51;101021.97;;;10.39;58.95
51496;BME280;37572;52.094;4.870;2024-03-23T02:42:17;101016.28;;;10.33;59.05
51496;BME280;37572;52.094;4.870;2024-03-23T02:44:43;101026.34;;;10.30;58.94
51496;BME280;37572;52.094;4.870;2024-03-23T02:47:08;101026.81;;;10.25;58.74
51496;BME280;37572;52.094;4.870;2024-03-23T02:49:34;101022.78;;;10.21;58.86
51496;BME280;37572;52.094;4.870;2024-03-23T02:51:59;101028.69;;;10.15;58.52
51496;BME280;37572;52.094;4.870;2024-03-23T02:54:24;101020.44;;;10.08;58.58
51496;BME280;37572;52.094;4.870;2024-03-23T02:56:49;101026.34;;;10.02;58.71
51496;BME280;37572;52.094;4.870;2024-03-23T02:59:15;101026.78;;;9.97;58.54
51496;BME280;37572;52.094;4.870;2024-03-23T03:01:40;101022.06;;;9.91;58.69
51496;BME280;37572;52.094;4.870;2024-03-23T03:04:05;101024.06;;;9.89;58.64
51496;BME280;37572;52.094;4.870;2024-03-23T03:06:31;101018.72;;;9.89;58.75
51496;BME280;37572;52.094;4.870;2024-03-23T03:08:56;101016.06;;;9.89;58.60
51496;BME280;37572;52.094;4.870;2024-03-23T03:11:21;101021.06;;;9.92;58.53
51496;BME280;37572;52.094;4.870;2024-03-23T03:13:47;101019.94;;;9.95;58.54
51496;BME280;37572;52.094;4.870;2024-03-23T03:16:12;101017.00;;;9.98;58.39
51496;BME280;37572;52.094;4.870;2024-03-23T03:18:38;101020.19;;;10.02;58.49
51496;BME280;37572;52.094;4.870;2024-03-23T03:21:04;101010.25;;;10.04;58.34
51496;BME280;37572;52.094;4.870;2024-03-23T03:23:32;101018.75;;;10.07;57.96
51496;BME280;37572;52.094;4.870;2024-03-23T03:25:57;101021.13;;;10.10;58.32
51496;BME280;37572;52.094;4.870;2024-03-23T03:28:23;101016.34;;;10.14;58.44
51496;BME280;37572;52.094;4.870;2024-03-23T03:30:48;101012.41;;;10.18;58.49
51496;BME280;37572;52.094;4.870;2024-03-23T03:33:13;101012.28;;;10.19;58.11
51496;BME280;37572;52.094;4.870;2024-03-23T03:35:38;101009.31;;;10.23;58.08
51496;BME280;37572;52.094;4.870;2024-03-23T03:38:04;101016.97;;;10.26;57.92
51496;BME280;37572;52.094;4.870;2024-03-23T03:40:30;101004.22;;;10.29;57.76
51496;BME280;37572;52.094;4.870;2024-03-23T03:42:55;101003.13;;;10.32;57.61
51496;BME280;37572;52.094;4.870;2024-03-23T03:45:21;100993.28;;;10.32;57.50
51496;BME280;37572;52.094;4.870;2024-03-23T03:47:46;100995.94;;;10.32;57.35
51496;BME280;37572;52.094;4.870;2024-03-23T03:50:11;100991.34;;;10.34;57.16
51496;BME280;37572;52.094;4.870;2024-03-23T03:52:36;100985.16;;;10.34;57.00
51496;BME280;37572;52.094;4.870;2024-03-23T03:55:02;100978.84;;;10.35;56.94
51496;BME280;37572;52.094;4.870;2024-03-23T03:57:28;100992.03;;;10.36;56.84
51496;BME280;37572;52.094;4.870;2024-03-23T03:59:53;100980.41;;;10.38;56.71
51496;BME280;37572;52.094;4.870;2024-03-23T04:02:19;100986.69;;;10.36;56.48
51496;BME280;37572;52.094;4.870;2024-03-23T04:04:44;100986.03;;;10.34;56.51
51496;BME280;37572;52.094;4.870;2024-03-23T04:07:09;100978.84;;;10.35;56.44
51496;BME280;37572;52.094;4.870;2024-03-23T04:09:35;100976.50;;;10.32;56.10
51496;BME280;37572;52.094;4.870;2024-03-23T04:12:00;100978.19;;;10.33;56.17
51496;BME280;37572;52.094;4.870;2024-03-23T04:14:26;100974.66;;;10.32;56.02
51496;BME280;37572;52.094;4.870;2024-03-23T04:16:51;100978.19;;;10.33;56.26
51496;BME280;37572;52.094;4.870;2024-03-23T04:19:16;100975.63;;;10.31;56.32
51496;BME280;37572;52.094;4.870;2024-03-23T04:21:42;100973.13;;;10.30;56.06
51496;BME280;37572;52.094;4.870;2024-03-23T04:24:07;100980.28;;;10.29;55.80
51496;BME280;37572;52.094;4.870;2024-03-23T04:26:42;100968.09;;;10.27;56.00
51496;BME280;37572;52.094;4.870;2024-03-23T04:29:07;100972.75;;;10.25;56.52
51496;BME280;37572;52.094;4.870;2024-03-23T04:31:33;100974.56;;;10.24;55.93
51496;BME280;37572;52.094;4.870;2024-03-23T04:34:00;100967.56;;;10.23;56.05
51496;BME280;37572;52.094;4.870;2024-03-23T04:36:25;100966.88;;;10.21;56.06
51496;BME280;37572;52.094;4.870;2024-03-23T04:38:51;100965.34;;;10.18;56.10
51496;BME280;37572;52.094;4.870;2024-03-23T04:41:17;100961.03;;;10.17;55.99
51496;BME280;37572;52.094;4.870;2024-03-23T04:43:43;100969.84;;;10.18;55.86
51496;BME280;37572;52.094;4.870;2024-03-23T04:46:08;100969.84;;;10.18;55.93
51496;BME280;37572;52.094;4.870;2024-03-23T04:48:33;100968.16;;;10.17;55.80
51496;BME280;37572;52.094;4.870;2024-03-23T04:50:59;100969.16;;;10.16;55.79
51496;BME280;37572;52.094;4.870;2024-03-23T04:53:24;100961.31;;;10.14;55.86
51496;BME280;37572;52.094;4.870;2024-03-23T04:55:54;100967.47;;;10.15;55.81
51496;BME280;37572;52.094;4.870;2024-03-23T04:58:19;100963.97;;;10.14;55.82
51496;BME280;37572;52.094;4.870;2024-03-23T05:00:44;100956.97;;;10.13;55.74
51496;BME280;37572;52.094;4.870;2024-03-23T05:03:10;100961.47;;;10.13;55.47
51496;BME280;37572;52.094;4.870;2024-03-23T05:05:35;100963.28;;;10.12;55.69
51496;BME280;37572;52.094;4.870;2024-03-23T05:08:00;100962.59;;;10.10;55.82
51496;BME280;37572;52.094;4.870;2024-03-23T05:10:25;100966.41;;;10.08;55.67
51496;BME280;37572;52.094;4.870;2024-03-23T05:12:51;100958.41;;;10.08;55.81
51496;BME280;37572;52.094;4.870;2024-03-23T05:15:16;100964.72;;;10.07;55.61
51496;BME280;37572;52.094;4.870;2024-03-23T05:17:42;100971.88;;;10.06;55.73
51496;BME280;37572;52.094;4.870;2024-03-23T05:20:07;100971.00;;;10.06;55.72
51496;BME280;37572;52.094;4.870;2024-03-23T05:22:37;100969.34;;;10.05;55.54
51496;BME280;37572;52.094;4.870;2024-03-23T05:25:03;100980.97;;;10.04;55.74
51496;BME280;37572;52.094;4.870;2024-03-23T05:27:31;100984.31;;;10.06;55.62
51496;BME280;37572;52.094;4.870;2024-03-23T05:29:56;100977.88;;;10.08;55.70
51496;BME280;37572;52.094;4.870;2024-03-23T05:32:21;100972.41;;;10.10;55.78
51496;BME280;37572;52.094;4.870;2024-03-23T05:34:47;100969.44;;;10.13;55.77
51496;BME280;37572;52.094;4.870;2024-03-23T05:37:12;100970.13;;;10.15;55.61
51496;BME280;37572;52.094;4.870;2024-03-23T05:39:37;100963.69;;;10.17;55.60
51496;BME280;37572;52.094;4.870;2024-03-23T05:42:03;100964.50;;;10.18;55.73
51496;BME280;37572;52.094;4.870;2024-03-23T05:44:29;100960.84;;;10.19;55.82
51496;BME280;37572;52.094;4.870;2024-03-23T05:46:56;100967.84;;;10.20;55.93
51496;BME280;37572;52.094;4.870;2024-03-23T05:49:21;100964.22;;;10.21;55.79
51496;BME280;37572;52.094;4.870;2024-03-23T05:51:47;100971.19;;;10.22;55.98
51496;BME280;37572;52.094;4.870;2024-03-23T05:54:12;100968.38;;;10.24;56.25
51496;BME280;37572;52.094;4.870;2024-03-23T05:56:37;100958.28;;;10.27;56.15
51496;BME280;37572;52.094;4.870;2024-03-23T05:59:02;100969.47;;;10.31;56.41
51496;BME280;37572;52.094;4.870;2024-03-23T06:01:28;100963.72;;;10.35;56.44
51496;BME280;37572;52.094;4.870;2024-03-23T06:03:54;100970.44;;;10.40;56.45
51496;BME280;37572;52.094;4.870;2024-03-23T06:06:19;100968.16;;;10.45;56.62
51496;BME280;37572;52.094;4.870;2024-03-23T06:08:44;100974.69;;;10.50;56.69
51496;BME280;37572;52.094;4.870;2024-03-23T06:11:10;100971.56;;;10.55;56.71
51496;BME280;37572;52.094;4.870;2024-03-23T06:13:35;100977.28;;;10.60;56.54
51496;BME280;37572;52.094;4.870;2024-03-23T06:16:01;100968.97;;;10.63;56.57
51496;BME280;37572;52.094;4.870;2024-03-23T06:18:26;100977.50;;;10.67;56.45
51496;BME280;37572;52.094;4.870;2024-03-23T06:20:52;100972.53;;;10.72;56.54
51496;BME280;37572;52.094;4.870;2024-03-23T06:23:17;100971.72;;;10.89;56.35
51496;BME280;37572;52.094;4.870;2024-03-23T06:25:45;100970.78;;;11.25;56.31
51496;BME280;37572;52.094;4.870;2024-03-23T06:28:10;100970.53;;;11.71;55.75
51496;BME280;37572;52.094;4.870;2024-03-23T06:30:36;100969.94;;;12.19;55.41
51496;BME280;37572;52.094;4.870;2024-03-23T06:33:01;100966.50;;;12.68;54.91
51496;BME280;37572;52.094;4.870;2024-03-23T06:35:26;100967.31;;;13.10;53.94
51496;BME280;37572;52.094;4.870;2024-03-23T06:37:52;100966.78;;;13.47;53.54
51496;BME280;37572;52.094;4.870;2024-03-23T06:40:17;100964.81;;;13.89;52.73
51496;BME280;37572;52.094;4.870;2024-03-23T06:42:43;100967.81;;;14.25;52.22
51496;BME280;37572;52.094;4.870;2024-03-23T06:45:08;100966.91;;;14.56;51.19
51496;BME280;37572;52.094;4.870;2024-03-23T06:47:34;100965.38;;;14.62;50.43
51496;BME280;37572;52.094;4.870;2024-03-23T06:50:00;100966.41;;;14.61;50.18
51496;BME280;37572;52.094;4.870;2024-03-23T06:52:30;100963.38;;;14.64;49.96
51496;BME280;37572;52.094;4.870;2024-03-23T06:54:55;100967.44;;;14.52;49.36
51496;BME280;37572;52.094;4.870;2024-03-23T06:57:21;100954.59;;;14.47;49.38
51496;BME280;37572;52.094;4.870;2024-03-23T06:59:46;100959.88;;;14.55;49.71
51496;BME280;37572;52.094;4.870;2024-03-23T07:02:11;100970.41;;;15.03;49.34
51496;BME280;37572;52.094;4.870;2024-03-23T07:04:37;100970.94;;;15.36;48.99
51496;BME280;37572;52.094;4.870;2024-03-23T07:07:04;100972.16;;;15.64;48.33
51496;BME280;37572;52.094;4.870;2024-03-23T07:09:30;100964.50;;;15.76;47.18
51496;BME280;37572;52.094;4.870;2024-03-23T07:11:58;100971.03;;;15.43;46.74
51496;BME280;37572;52.094;4.870;2024-03-23T07:14:24;100970.44;;;15.18;47.33
51496;BME280;37572;52.094;4.870;2024-03-23T07:16:50;100970.56;;;14.87;46.84
51496;BME280;37572;52.094;4.870;2024-03-23T07:19:16;100975.59;;;14.58;47.68
51496;BME280;37572;52.094;4.870;2024-03-23T07:21:45;100970.16;;;14.75;48.36
51496;BME280;37572;52.094;4.870;2024-03-23T07:24:11;100979.81;;;14.84;47.83
51496;BME280;37572;52.094;4.870;2024-03-23T07:26:36;100976.31;;;14.98;48.06
51496;BME280;37572;52.094;4.870;2024-03-23T07:29:06;100968.38;;;15.05;47.62
51496;BME280;37572;52.094;4.870;2024-03-23T07:31:31;100973.78;;;14.82;47.32
51496;BME280;37572;52.094;4.870;2024-03-23T07:33:57;100972.16;;;14.50;47.47
51496;BME280;37572;52.094;4.870;2024-03-23T07:36:22;100978.56;;;14.17;47.33
51496;BME280;37572;52.094;4.870;2024-03-23T07:38:47;100974.34;;;13.83;47.94
51496;BME280;37572;52.094;4.870;2024-03-23T07:41:18;100974.44;;;13.59;48.36
51496;BME280;37572;52.094;4.870;2024-03-23T07:43:44;100974.97;;;13.54;49.29
51496;BME280;37572;52.094;4.870;2024-03-23T07:46:10;100961.94;;;13.51;49.48
51496;BME280;37572;52.094;4.870;2024-03-23T07:48:37;100961.03;;;13.67;49.92
51496;BME280;37572;52.094;4.870;2024-03-23T07:51:07;100959.06;;;13.92;49.74
51496;BME280;37572;52.094;4.870;2024-03-23T07:53:33;100960.34;;;14.13;48.98
51496;BME280;37572;52.094;4.870;2024-03-23T07:56:01;100962.19;;;14.35;48.87
51496;BME280;37572;52.094;4.870;2024-03-23T07:58:26;100964.41;;;14.55;48.67
51496;BME280;37572;52.094;4.870;2024-03-23T08:00:56;100969.41;;;14.58;47.90
51496;BME280;37572;52.094;4.870;2024-03-23T08:03:22;100974.19;;;14.48;47.81
51496;BME280;37572;52.094;4.870;2024-03-23T08:05:48;100963.56;;;14.31;47.58
51496;BME280;37572;52.094;4.870;2024-03-23T08:08:13;100960.34;;;14.13;47.23
51496;BME280;37572;52.094;4.870;2024-03-23T08:10:51;100960.28;;;13.90;48.02
51496;BME280;37572;52.094;4.870;2024-03-23T08:13:17;100961.53;;;13.71;48.15
51496;BME280;37572;52.094;4.870;2024-03-23T08:15:43;100951.72;;;13.55;48.28
51496;BME280;37572;52.094;4.870;2024-03-23T08:18:10;100966.31;;;13.36;48.39
51496;BME280;37572;52.094;4.870;2024-03-23T08:20:35;100966.00;;;13.14;48.59
51496;BME280;37572;52.094;4.870;2024-03-23T08:23:01;100964.31;;;12.96;48.85
51496;BME280;37572;52.094;4.870;2024-03-23T08:25:26;100969.50;;;12.90;49.35
51496;BME280;37572;52.094;4.870;2024-03-23T08:27:51;100965.84;;;12.99;49.89
51496;BME280;37572;52.094;4.870;2024-03-23T08:30:17;100962.31;;;13.07;49.48
51496;BME280;37572;52.094;4.870;2024-03-23T08:32:42;100965.31;;;13.04;49.46
51496;BME280;37572;52.094;4.870;2024-03-23T08:35:08;100971.34;;;12.98;49.32
51496;BME280;37572;52.094;4.870;2024-03-23T08:37:33;100966.34;;;12.94;49.47
51496;BME280;37572;52.094;4.870;2024-03-23T08:39:59;100965.16;;;12.97;49.69
51496;BME280;37572;52.094;4.870;2024-03-23T08:42:24;100957.81;;;12.99;49.56
51496;BME280;37572;52.094;4.870;2024-03-23T08:44:49;100966.66;;;13.00;49.58
51496;BME280;37572;52.094;4.870;2024-03-23T08:47:17;100966.34;;;13.03;49.38
51496;BME280;37572;52.094;4.870;2024-03-23T08:49:44;100961.31;;;13.00;49.13
51496;BME280;37572;52.094;4.870;2024-03-23T08:52:10;100965.50;;;12.94;48.63
51496;BME280;37572;52.094;4.870;2024-03-23T08:54:35;100969.84;;;12.87;49.02
51496;BME280;37572;52.094;4.870;2024-03-23T08:57:00;100965.69;;;12.84;49.44
51496;BME280;37572;52.094;4.870;2024-03-23T08:59:26;100961.66;;;12.88;49.20
51496;BME280;37572;52.094;4.870;2024-03-23T09:01:51;100955.47;;;12.96;49.32
51496;BME280;37572;52.094;4.870;2024-03-23T09:04:16;100958.47;;;13.09;49.31
51496;BME280;37572;52.094;4.870;2024-03-23T09:06:42;100951.44;;;13.33;49.74
51496;BME280;37572;52.094;4.870;2024-03-23T09:09:08;100942.19;;;13.52;48.99
51496;BME280;37572;52.094;4.870;2024-03-23T09:11:33;100955.69;;;13.67;49.20
51496;BME280;37572;52.094;4.870;2024-03-23T09:13:58;100952.97;;;13.75;48.91
51496;BME280;37572;52.094;4.870;2024-03-23T09:16:23;100953.50;;;13.71;48.64
51496;BME280;37572;52.094;4.870;2024-03-23T09:18:49;100947.81;;;13.65;48.25
51496;BME280;37572;52.094;4.870;2024-03-23T09:21:14;100954.38;;;13.55;48.24
51496;BME280;37572;52.094;4.870;2024-03-23T09:23:42;100962.94;;;13.42;48.14
51496;BME280;37572;52.094;4.870;2024-03-23T09:26:08;100956.28;;;13.29;48.12
51496;BME280;37572;52.094;4.870;2024-03-23T09:28:33;100969.50;;;13.14;47.90
51496;BME280;37572;52.094;4.870;2024-03-23T09:31:05;100961.47;;;13.06;48.46
51496;BME280;37572;52.094;4.870;2024-03-23T09:33:32;100962.81;;;13.10;48.35
51496;BME280;37572;52.094;4.870;2024-03-23T09:35:57;100957.25;;;13.28;48.74
51496;BME280;37572;52.094;4.870;2024-03-23T09:38:23;100948.88;;;13.56;48.72
51496;BME280;37572;52.094;4.870;2024-03-23T09:40:52;100953.59;;;13.85;48.52
51496;BME280;37572;52.094;4.870;2024-03-23T09:43:18;100955.66;;;14.06;47.16
51496;BME280;37572;52.094;4.870;2024-03-23T09:45:44;100945.44;;;14.10;46.65
51496;BME280;37572;52.094;4.870;2024-03-23T09:48:10;100952.69;;;14.01;46.53
51496;BME280;37572;52.094;4.870;2024-03-23T09:50:39;100953.72;;;13.92;46.36
51496;BME280;37572;52.094;4.870;2024-03-23T09:53:07;100955.72;;;13.98;46.73
51496;BME280;37572;52.094;4.870;2024-03-23T09:55:32;100948.97;;;14.11;46.92
51496;BME280;37572;52.094;4.870;2024-03-23T09:57:58;100940.38;;;14.15;46.32
51496;BME280;37572;52.094;4.870;2024-03-23T10:00:23;100959.00;;;14.09;46.07
51496;BME280;37572;52.094;4.870;2024-03-23T10:02:48;100954.72;;;13.99;46.07
51496;BME280;37572;52.094;4.870;2024-03-23T10:05:21;100945.38;;;13.87;46.21
51496;BME280;37572;52.094;4.870;2024-03-23T10:07:51;100953.81;;;13.76;46.39
51496;BME280;37572;52.094;4.870;2024-03-23T10:10:16;100947.31;;;13.70;46.87
51496;BME280;37572;52.094;4.870;2024-03-23T10:12:46;100960.53;;;13.63;46.68
51496;BME280;37572;52.094;4.870;2024-03-23T10:15:19;100987.00;;;13.50;46.69
51496;BME280;37572;52.094;4.870;2024-03-23T10:17:44;100978.00;;;13.18;47.06
51496;BME280;37572;52.094;4.870;2024-03-23T10:20:10;100971.69;;;12.78;47.63
51496;BME280;37572;52.094;4.870;2024-03-23T10:22:39;100966.97;;;12.55;49.39
51496;BME280;37572;52.094;4.870;2024-03-23T10:25:09;100956.28;;;12.55;50.13
51496;BME280;37572;52.094;4.870;2024-03-23T10:27:34;100954.31;;;12.57;50.28
51496;BME280;37572;52.094;4.870;2024-03-23T10:30:11;100953.78;;;12.62;50.61
51496;BME280;37572;52.094;4.870;2024-03-23T10:32:37;100958.31;;;12.70;51.31
51496;BME280;37572;52.094;4.870;2024-03-23T10:35:19;100959.84;;;12.72;51.27
51496;BME280;37572;52.094;4.870;2024-03-23T10:37:47;100959.31;;;12.69;51.21
51496;BME280;37572;52.094;4.870;2024-03-23T10:40:15;100954.66;;;12.63;51.37
51496;BME280;37572;52.094;4.870;2024-03-23T10:42:40;100951.81;;;12.64;51.40
51496;BME280;37572;52.094;4.870;2024-03-23T10:45:08;100961.31;;;12.67;51.20
51496;BME280;37572;52.094;4.870;2024-03-23T10:47:37;100949.31;;;12.71;50.70
51496;BME280;37572;52.094;4.870;2024-03-23T10:50:03;100962.50;;;12.72;50.46
51496;BME280;37572;52.094;4.870;2024-03-23T10:52:30;100963.00;;;12.68;50.04
51496;BME280;37572;52.094;4.870;2024-03-23T10:54:56;100956.63;;;12.69;50.46
51496;BME280;37572;52.094;4.870;2024-03-23T10:57:27;100952.81;;;12.71;50.39
51496;BME280;37572;52.094;4.870;2024-03-23T10:59:55;100939.63;;;12.78;50.73
51496;BME280;37572;52.094;4.870;2024-03-23T11:02:21;100937.28;;;12.91;50.17
51496;BME280;37572;52.094;4.870;2024-03-23T11:04:47;100934.91;;;13.05;50.21
51496;BME280;37572;52.094;4.870;2024-03-23T11:09:50;100952.59;;;13.39;49.55
51496;BME280;37572;52.094;4.870;2024-03-23T11:14:50;100939.50;;;13.52;48.63
51496;BME280;37572;52.094;4.870;2024-03-23T11:17:19;100936.81;;;13.52;48.39
51496;BME280;37572;52.094;4.870;2024-03-23T11:19:52;100931.13;;;13.55;48.28
51496;BME280;37572;52.094;4.870;2024-03-23T11:22:41;100943.03;;;13.53;47.98
51496;BME280;37572;52.094;4.870;2024-03-23T11:25:23;100939.19;;;13.47;48.28
51496;BME280;37572;52.094;4.870;2024-03-23T11:27:51;100934.16;;;13.52;48.97
51496;BME280;37572;52.094;4.870;2024-03-23T11:30:24;100920.19;;;13.73;49.12
51496;BME280;37572;52.094;4.870;2024-03-23T11:32:52;100922.59;;;13.99;48.93
51496;BME280;37572;52.094;4.870;2024-03-23T11:35:31;100934.22;;;14.15;48.07
51496;BME280;37572;52.094;4.870;2024-03-23T11:38:13;100924.50;;;14.14;47.48
51496;BME280;37572;52.094;4.870;2024-03-23T11:40:42;100925.88;;;14.10;47.57
51496;BME280;37572;52.094;4.870;2024-03-23T11:43:09;100925.09;;;14.01;46.84
51496;BME280;37572;52.094;4.870;2024-03-23T11:45:42;100920.94;;;13.90;47.10
51496;BME280;37572;52.094;4.870;2024-03-23T11:48:09;100912.91;;;13.90;46.77
51496;BME280;37572;52.094;4.870;2024-03-23T11:50:37;100909.50;;;14.04;47.31
51496;BME280;37572;52.094;4.870;2024-03-23T11:53:13;100914.66;;;14.37;46.94
51496;BME280;37572;52.094;4.870;2024-03-23T11:58:08;100898.91;;;14.80;46.07
51496;BME280;37572;52.094;4.870;2024-03-23T12:00:34;100917.97;;;14.86;45.88
51496;BME280;37572;52.094;4.870;2024-03-23T12:03:01;100912.88;;;14.76;45.37
51496;BME280;37572;52.094;4.870;2024-03-23T12:05:26;100907.47;;;14.61;44.98
51496;BME280;37572;52.094;4.870;2024-03-23T12:07:52;100898.91;;;14.57;45.00
51496;BME280;37572;52.094;4.870;2024-03-23T12:10:19;100896.97;;;14.74;44.55
51496;BME280;37572;52.094;4.870;2024-03-23T12:12:45;100899.22;;;14.86;44.24
51496;BME280;37572;52.094;4.870;2024-03-23T12:15:10;100896.03;;;14.82;44.00
51496;BME280;37572;52.094;4.870;2024-03-23T12:17:38;100894.75;;;14.78;43.79
51496;BME280;37572;52.094;4.870;2024-03-23T12:20:04;100896.13;;;14.89;43.76
51496;BME280;37572;52.094;4.870;2024-03-23T12:22:29;100895.72;;;15.15;43.61
51496;BME280;37572;52.094;4.870;2024-03-23T12:24:55;100887.13;;;15.49;43.74
51496;BME280;37572;52.094;4.870;2024-03-23T12:27:21;100882.25;;;15.89;43.96
51496;BME280;37572;52.094;4.870;2024-03-23T12:29:47;100890.91;;;16.28;43.26
51496;BME280;37572;52.094;4.870;2024-03-23T12:32:13;100895.72;;;16.54;42.30
51496;BME280;37572;52.094;4.870;2024-03-23T12:34:39;100887.63;;;16.76;41.49
51496;BME280;37572;52.094;4.870;2024-03-23T12:37:04;100888.25;;;16.78;40.87
51496;BME280;37572;52.094;4.870;2024-03-23T12:39:31;100886.13;;;16.73;40.88
51496;BME280;37572;52.094;4.870;2024-03-23T12:41:56;100877.19;;;16.66;40.36
51496;BME280;37572;52.094;4.870;2024-03-23T12:44:21;100894.88;;;16.54;39.39
51496;BME280;37572;52.094;4.870;2024-03-23T12:46:47;100912.34;;;16.21;39.37
51496;BME280;37572;52.094;4.870;2024-03-23T12:49:12;100927.00;;;15.67;40.43
51496;BME280;37572;52.094;4.870;2024-03-23T12:51:37;100935.38;;;15.05;41.02
51496;BME280;37572;52.094;4.870;2024-03-23T12:54:03;100918.34;;;14.36;42.28
51496;BME280;37572;52.094;4.870;2024-03-23T12:56:28;100912.31;;;13.80;43.55
51496;BME280;37572;52.094;4.870;2024-03-23T12:58:54;100909.28;;;13.43;44.59
51496;BME280;37572;52.094;4.870;2024-03-23T13:01:22;100893.13;;;13.12;45.52
51496;BME280;37572;52.094;4.870;2024-03-23T13:03:47;100901.00;;;12.89;45.80
51496;BME280;37572;52.094;4.870;2024-03-23T13:06:13;100890.34;;;12.81;46.16
51496;BME280;37572;52.094;4.870;2024-03-23T13:08:38;100881.25;;;13.14;46.18
51496;BME280;37572;52.094;4.870;2024-03-23T13:11:05;100882.66;;;13.50;45.64
51496;BME280;37572;52.094;4.870;2024-03-23T13:13:31;100872.88;;;13.65;45.45
51496;BME280;37572;52.094;4.870;2024-03-23T13:15:57;100872.25;;;13.63;45.21
51496;BME280;37572;52.094;4.870;2024-03-23T13:18:22;100879.66;;;13.53;44.99
51496;BME280;37572;52.094;4.870;2024-03-23T13:20:47;100874.38;;;13.37;45.30
51496;BME280;37572;52.094;4.870;2024-03-23T13:23:12;100878.09;;;13.19;45.44
51496;BME280;37572;52.094;4.870;2024-03-23T13:25:38;100872.78;;;13.03;46.04
51496;BME280;37572;52.094;4.870;2024-03-23T13:28:03;100870.78;;;12.88;46.44
51496;BME280;37572;52.094;4.870;2024-03-23T13:30:29;100868.47;;;12.77;46.66
51496;BME280;37572;52.094;4.870;2024-03-23T13:32:54;100867.31;;;12.80;47.51
51496;BME280;37572;52.094;4.870;2024-03-23T13:35:19;100856.75;;;12.94;48.12
51496;BME280;37572;52.094;4.870;2024-03-23T13:37:44;100849.00;;;13.16;48.07
51496;BME280;37572;52.094;4.870;2024-03-23T13:40:10;100838.72;;;13.44;48.26
51496;BME280;37572;52.094;4.870;2024-03-23T13:42:36;100843.78;;;13.71;48.05
51496;BME280;37572;52.094;4.870;2024-03-23T13:45:02;100852.84;;;13.93;47.15
51496;BME280;37572;52.094;4.870;2024-03-23T13:47:27;100843.09;;;14.00;46.64